Albany, New York
Traffic Map
Current Weather Conditions
Albany, New York
Broken Clouds Light Rain
Broken Clouds
74°
Feels Like: 74°
Wind Chill: 74° Ceiling: 8500
Heat Index: 74° Visibility: 10mi
Dew Point: 66° Wind: 5mph
Humidity: 76% Direction: 190° (S)
Pressure: 29.77in Gusts: 0mph
Raw Report DataKALB 242051Z 19004KT 10SM -RA FEW011 SCT065 BKN085 BKN130 23/19 A2977 RMK AO2 RAB41 SLP081 P0000 60003 T02330189 58011
Traffic Incident Summary
Active as of:
Severity:
Category:
InformationThere was an issue retrieving the traffic information for this location. Please try a different location or try again shortly.
Advertisements